Time;durP1;ratioP1;P1;durP2;ratioP2;P2;SDS_P1;SDS_P2;PMS_P1;PMS_P2;Temp;Humidity;BMP_temperature;BMP_pressure;BME280_temperature;BME280_humidity;BME280_pressure;Samples;Min_cycle;Max_cycle;Signal;HPM_P1;HPM_P2
2023/12/24 00:02:22;;;;;;;;;;;12.20;99.90;;;;;;7332544;19;118807;-73
2023/12/24 00:04:50;;;;;;;;;;;12.20;99.90;;;;;;7331997;19;109548;-73
2023/12/24 00:07:17;;;;;;;;;;;12.20;99.90;;;;;;7333811;19;110831;-73
2023/12/24 00:09:44;;;;;;;;;;;12.20;99.90;;;;;;7336406;19;108361;-74
2023/12/24 00:12:12;;;;;;;;;;;12.20;99.90;;;;;;7333430;19;108934;-72
2023/12/24 00:14:39;;;;;;;;;;;12.20;99.90;;;;;;7334078;19;110221;-73
2023/12/24 00:17:06;;;;;;;;;;;12.20;99.90;;;;;;7337191;19;108660;-73
2023/12/24 00:19:33;;;;;;;;;;;12.20;99.90;;;;;;7333814;19;110365;-73
2023/12/24 00:22:01;;;;;;;;;;;12.20;99.90;;;;;;7336123;19;110773;-74
2023/12/24 00:24:28;;;;;;;;;;;12.20;99.90;;;;;;7332084;19;108941;-73
2023/12/24 00:26:55;;;;;;;;;;;12.20;99.90;;;;;;7327331;19;109541;-73
2023/12/24 00:29:22;;;;;;;;;;;12.10;99.90;;;;;;7334983;19;108864;-73
2023/12/24 00:31:49;;;;;;;;;;;12.20;99.90;;;;;;7331967;19;108679;-74
2023/12/24 00:34:19;;;;;;;;;;;12.20;99.90;;;;;;7331253;19;109222;-73
2023/12/24 00:36:46;;;;;;;;;;;12.20;99.90;;;;;;7330989;19;109178;-73
2023/12/24 00:39:13;;;;;;;;;;;12.20;99.90;;;;;;7340819;19;108689;-73
2023/12/24 00:41:40;;;;;;;;;;;12.20;99.90;;;;;;7335378;19;109065;-73
2023/12/24 00:44:07;;;;;;;;;;;12.20;99.90;;;;;;7340521;19;109516;-73
2023/12/24 00:46:34;;;;;;;;;;;12.20;99.90;;;;;;7344378;19;110441;-74
2023/12/24 00:49:01;;;;;;;;;;;12.30;99.90;;;;;;7337307;19;110133;-73
2023/12/24 00:51:28;;;;;;;;;;;12.30;99.90;;;;;;7345151;19;108706;-73
2023/12/24 00:53:55;;;;;;;;;;;12.30;99.90;;;;;;7333857;19;112957;-73
2023/12/24 00:56:23;;;;;;;;;;;12.30;99.90;;;;;;7332930;19;108983;-73
2023/12/24 00:58:50;;;;;;;;;;;12.20;99.90;;;;;;7333662;19;110303;-73
2023/12/24 01:01:17;;;;;;;;;;;12.30;99.90;;;;;;7340302;19;108530;-73
2023/12/24 01:03:44;;;;;;;;;;;12.30;99.90;;;;;;7332434;19;109012;-73
2023/12/24 01:06:11;;;;;;;;;;;12.30;99.90;;;;;;7333144;19;110525;-73
2023/12/24 01:08:39;;;;;;;;;;;12.30;99.90;;;;;;7338074;19;108750;-72
2023/12/24 01:11:06;;;;;;;;;;;12.30;99.90;;;;;;7338596;19;109215;-75
2023/12/24 01:13:33;;;;;;;;;;;12.30;99.90;;;;;;7340688;19;109403;-74
2023/12/24 01:16:01;;;;;;;;;;;12.30;99.90;;;;;;7342243;19;109229;-76
2023/12/24 01:18:28;;;;;;;;;;;12.30;99.90;;;;;;7339502;19;108697;-76
2023/12/24 01:20:56;;;;;;;;;;;12.30;99.90;;;;;;7340935;19;109274;-88
2023/12/24 01:23:23;;;;;;;;;;;12.30;99.90;;;;;;7346577;19;109056;-88
2023/12/24 01:25:50;;;;;;;;;;;12.20;99.90;;;;;;7337507;19;109674;-89
2023/12/24 01:28:17;;;;;;;;;;;12.20;99.90;;;;;;7339459;19;109702;-90
2023/12/24 01:30:45;;;;;;;;;;;12.20;99.90;;;;;;7342762;19;109181;-88
2023/12/24 01:33:12;;;;;;;;;;;12.30;99.90;;;;;;7337544;19;112501;-89
2023/12/24 01:35:43;;;;;;;;;;;12.30;99.90;;;;;;7340314;19;109024;-89
2023/12/24 01:38:10;;;;;;;;;;;12.30;99.90;;;;;;7339719;19;109189;-89
2023/12/24 01:40:43;;;;;;;;;;;12.30;99.90;;;;;;7341375;19;110627;-88
2023/12/24 01:43:10;;;;;;;;;;;12.30;99.90;;;;;;7337688;19;108708;-88
2023/12/24 01:45:37;;;;;;;;;;;12.30;99.90;;;;;;7343854;19;110777;-90
2023/12/24 01:48:05;;;;;;;;;;;12.30;99.90;;;;;;7336573;19;108425;-89
2023/12/24 01:50:32;;;;;;;;;;;12.30;99.90;;;;;;7336277;19;109339;-88
2023/12/24 01:52:59;;;;;;;;;;;12.30;99.90;;;;;;7341711;19;110309;-88
2023/12/24 01:55:27;;;;;;;;;;;12.30;99.90;;;;;;7335574;19;108439;-92
2023/12/24 01:57:54;;;;;;;;;;;12.30;99.90;;;;;;7337230;19;111322;-89
2023/12/24 02:00:21;;;;;;;;;;;12.40;99.90;;;;;;7335523;19;110843;-89
2023/12/24 02:02:49;;;;;;;;;;;12.40;99.90;;;;;;7341222;19;108789;-89
2023/12/24 02:05:17;;;;;;;;;;;12.40;99.90;;;;;;7342848;19;108912;-88
2023/12/24 02:07:44;;;;;;;;;;;12.40;99.90;;;;;;7340285;19;109036;-89
2023/12/24 02:10:12;;;;;;;;;;;12.40;99.90;;;;;;7338072;19;110639;-88
2023/12/24 02:12:39;;;;;;;;;;;12.40;99.90;;;;;;7337214;19;110980;-89
2023/12/24 02:15:06;;;;;;;;;;;12.30;99.90;;;;;;7337413;19;109122;-88
2023/12/24 02:17:34;;;;;;;;;;;12.30;99.90;;;;;;7337330;19;108523;-88
2023/12/24 02:20:01;;;;;;;;;;;12.30;99.90;;;;;;7335167;19;111046;-90
2023/12/24 02:22:28;;;;;;;;;;;12.30;99.90;;;;;;7338234;19;108509;-89
2023/12/24 02:24:56;;;;;;;;;;;12.30;99.90;;;;;;7337989;19;109059;-89
2023/12/24 02:27:33;;;;;;;;;;;12.30;99.90;;;;;;7342698;19;110367;-90
2023/12/24 02:30:04;;;;;;;;;;;12.30;99.90;;;;;;7337006;19;111875;-89
2023/12/24 02:32:33;;;;;;;;;;;12.30;99.90;;;;;;7336122;19;110046;-89
2023/12/24 02:35:01;;;;;;;;;;;12.20;99.90;;;;;;7336753;19;109823;-90
2023/12/24 02:37:29;;;;;;;;;;;12.20;99.90;;;;;;7336296;19;109143;-90
2023/12/24 02:39:57;;;;;;;;;;;12.20;99.90;;;;;;7336676;19;110008;-90
2023/12/24 02:42:24;;;;;;;;;;;12.20;99.90;;;;;;7337337;19;108926;-89
2023/12/24 02:44:51;;;;;;;;;;;12.20;99.90;;;;;;7335748;19;109570;-90
2023/12/24 02:47:18;;;;;;;;;;;12.20;99.90;;;;;;7337977;19;111835;-89
2023/12/24 02:49:45;;;;;;;;;;;12.20;99.90;;;;;;7341727;19;110171;-89
2023/12/24 02:52:13;;;;;;;;;;;12.20;99.90;;;;;;7334742;19;108949;-90
2023/12/24 02:54:40;;;;;;;;;;;12.20;99.90;;;;;;7339596;19;108461;-89
2023/12/24 02:57:07;;;;;;;;;;;12.20;99.90;;;;;;7337125;19;109776;-92
2023/12/24 02:59:34;;;;;;;;;;;12.10;99.90;;;;;;7337719;19;112689;-74
2023/12/24 03:02:01;;;;;;;;;;;12.10;99.90;;;;;;7337693;19;108677;-73
2023/12/24 03:04:28;;;;;;;;;;;12.10;99.90;;;;;;7333245;19;108630;-74
2023/12/24 03:06:55;;;;;;;;;;;12.20;99.90;;;;;;7333816;19;109841;-74
2023/12/24 03:09:22;;;;;;;;;;;12.10;99.90;;;;;;7331963;19;109192;-74
2023/12/24 03:11:50;;;;;;;;;;;12.10;99.90;;;;;;7342114;19;108661;-76
2023/12/24 03:14:17;;;;;;;;;;;12.10;99.90;;;;;;7336372;19;108478;-74
2023/12/24 03:16:44;;;;;;;;;;;12.10;99.90;;;;;;7335789;19;108843;-74
2023/12/24 03:19:12;;;;;;;;;;;12.10;99.90;;;;;;7338505;19;111879;-74
2023/12/24 03:21:40;;;;;;;;;;;12.10;99.90;;;;;;7335793;19;108956;-74
2023/12/24 03:24:08;;;;;;;;;;;12.10;99.90;;;;;;7335938;19;108716;-74
2023/12/24 03:26:35;;;;;;;;;;;12.10;99.90;;;;;;7338804;19;109771;-74
2023/12/24 03:29:02;;;;;;;;;;;12.10;99.90;;;;;;7337498;19;108498;-74
2023/12/24 03:31:30;;;;;;;;;;;12.10;99.90;;;;;;7334379;19;109523;-73
2023/12/24 03:33:57;;;;;;;;;;;12.10;99.90;;;;;;7342361;19;109462;-72
2023/12/24 03:36:28;;;;;;;;;;;12.10;99.90;;;;;;7331921;19;108312;-72
2023/12/24 03:38:55;;;;;;;;;;;12.10;99.90;;;;;;7338765;19;109686;-72
2023/12/24 03:41:22;;;;;;;;;;;12.00;99.90;;;;;;7334323;19;108948;-73
2023/12/24 03:43:52;;;;;;;;;;;12.10;99.90;;;;;;7335656;19;109202;-74
2023/12/24 03:46:19;;;;;;;;;;;12.00;99.90;;;;;;7336202;19;109769;-75
2023/12/24 03:48:47;;;;;;;;;;;12.00;99.90;;;;;;7336762;19;109550;-75
2023/12/24 03:51:15;;;;;;;;;;;12.00;99.90;;;;;;7337260;19;110091;-75
2023/12/24 03:53:43;;;;;;;;;;;12.10;99.90;;;;;;7335132;19;109509;-75
2023/12/24 03:56:11;;;;;;;;;;;12.10;99.90;;;;;;7340214;19;109416;-71
2023/12/24 03:58:38;;;;;;;;;;;12.10;99.90;;;;;;7333397;19;109552;-75
2023/12/24 04:01:09;;;;;;;;;;;12.10;99.90;;;;;;7334616;19;109802;-75
2023/12/24 04:03:40;;;;;;;;;;;12.00;99.90;;;;;;7334222;19;109703;-74
2023/12/24 04:06:13;;;;;;;;;;;12.10;99.90;;;;;;7335264;19;109214;-76
2023/12/24 04:08:40;;;;;;;;;;;12.00;99.90;;;;;;7332981;19;108949;-72
2023/12/24 04:11:17;;;;;;;;;;;12.10;99.90;;;;;;7335683;19;108579;-74
2023/12/24 04:13:44;;;;;;;;;;;12.00;99.90;;;;;;7334456;19;109631;-73
2023/12/24 04:16:12;;;;;;;;;;;12.10;99.90;;;;;;7338591;19;109738;-73
2023/12/24 04:18:39;;;;;;;;;;;12.00;99.90;;;;;;7336474;19;110216;-74
2023/12/24 04:21:07;;;;;;;;;;;12.00;99.90;;;;;;7337070;19;109286;-74
2023/12/24 04:23:34;;;;;;;;;;;12.00;99.90;;;;;;7334237;19;112383;-74
2023/12/24 04:26:01;;;;;;;;;;;12.00;99.90;;;;;;7334763;19;110194;-73
2023/12/24 04:28:28;;;;;;;;;;;12.00;99.90;;;;;;7337697;19;109385;-73
2023/12/24 04:30:55;;;;;;;;;;;12.10;99.90;;;;;;7334864;19;109014;-73
2023/12/24 04:33:23;;;;;;;;;;;12.10;99.90;;;;;;7334011;19;109418;-73
2023/12/24 04:35:50;;;;;;;;;;;12.10;99.90;;;;;;7330325;19;110451;-73
2023/12/24 04:38:17;;;;;;;;;;;12.10;99.90;;;;;;7337818;19;109162;-74
2023/12/24 04:40:44;;;;;;;;;;;12.10;99.90;;;;;;7332824;19;111188;-74
2023/12/24 04:43:14;;;;;;;;;;;12.10;99.90;;;;;;7332061;19;108834;-73
2023/12/24 04:45:41;;;;;;;;;;;12.10;99.90;;;;;;7336927;19;109302;-72
2023/12/24 04:48:08;;;;;;;;;;;12.10;99.90;;;;;;7333215;19;109802;-73
2023/12/24 04:50:35;;;;;;;;;;;12.10;99.90;;;;;;7331536;19;109533;-73
2023/12/24 04:53:03;;;;;;;;;;;12.10;99.90;;;;;;7334601;19;110040;-73
2023/12/24 04:55:30;;;;;;;;;;;12.10;99.90;;;;;;7337263;19;109346;-72
2023/12/24 04:57:57;;;;;;;;;;;12.10;99.90;;;;;;7331250;19;110116;-73
2023/12/24 05:00:24;;;;;;;;;;;12.10;99.90;;;;;;7338181;19;110549;-73
2023/12/24 05:02:51;;;;;;;;;;;12.10;99.90;;;;;;7331526;19;112681;-73
2023/12/24 05:05:19;;;;;;;;;;;12.10;99.90;;;;;;7332569;19;109340;-74
2023/12/24 05:07:46;;;;;;;;;;;12.10;99.90;;;;;;7332545;19;109169;-73
2023/12/24 05:10:13;;;;;;;;;;;12.10;99.90;;;;;;7330019;19;108969;-74
2023/12/24 05:12:40;;;;;;;;;;;12.10;99.90;;;;;;7331340;19;111471;-76
2023/12/24 05:15:08;;;;;;;;;;;12.20;99.90;;;;;;7333329;19;108750;-76
2023/12/24 05:17:35;;;;;;;;;;;12.10;99.90;;;;;;7334197;19;109537;-78
2023/12/24 05:20:02;;;;;;;;;;;12.10;99.90;;;;;;7331716;19;109193;-78
2023/12/24 05:22:30;;;;;;;;;;;12.10;99.90;;;;;;7338099;19;109099;-77
2023/12/24 05:24:57;;;;;;;;;;;12.10;99.90;;;;;;7333339;19;110151;-73
2023/12/24 05:27:24;;;;;;;;;;;12.20;99.90;;;;;;7329819;19;108979;-76
2023/12/24 05:29:51;;;;;;;;;;;12.20;99.90;;;;;;7334111;19;109752;-74
2023/12/24 05:32:18;;;;;;;;;;;12.10;99.90;;;;;;7330605;19;109765;-74
2023/12/24 05:34:45;;;;;;;;;;;12.20;99.90;;;;;;7332809;19;108621;-74
2023/12/24 05:37:12;;;;;;;;;;;12.20;99.90;;;;;;7331259;19;109073;-73
2023/12/24 05:39:42;;;;;;;;;;;12.20;99.90;;;;;;7332888;19;109112;-72
2023/12/24 05:42:09;;;;;;;;;;;12.20;99.90;;;;;;7331815;19;110218;-74
2023/12/24 05:44:36;;;;;;;;;;;12.10;99.90;;;;;;7338207;19;109305;-73
2023/12/24 05:47:04;;;;;;;;;;;12.20;99.90;;;;;;7330807;19;108922;-73
2023/12/24 05:49:32;;;;;;;;;;;12.20;99.90;;;;;;7332055;19;110396;-72
2023/12/24 05:51:59;;;;;;;;;;;12.20;99.90;;;;;;7330073;19;110125;-73
2023/12/24 05:54:26;;;;;;;;;;;12.30;99.90;;;;;;7335827;19;109468;-73
2023/12/24 05:56:53;;;;;;;;;;;12.20;99.90;;;;;;7340251;19;108966;-72
2023/12/24 05:59:21;;;;;;;;;;;12.20;99.90;;;;;;7346052;19;110171;-74
2023/12/24 06:01:48;;;;;;;;;;;12.20;99.90;;;;;;7346238;19;109542;-73
2023/12/24 06:04:15;;;;;;;;;;;12.20;99.90;;;;;;7348040;19;109796;-73
2023/12/24 06:06:43;;;;;;;;;;;12.20;99.90;;;;;;7352826;19;109736;-73
2023/12/24 06:09:10;;;;;;;;;;;12.20;99.90;;;;;;7338752;19;110598;-73
2023/12/24 06:11:37;;;;;;;;;;;12.20;99.90;;;;;;7340245;19;110315;-73
2023/12/24 06:14:04;;;;;;;;;;;12.20;99.90;;;;;;7337455;19;109362;-72
2023/12/24 06:16:31;;;;;;;;;;;12.20;99.90;;;;;;7339139;19;113866;-72
2023/12/24 06:18:58;;;;;;;;;;;12.30;99.90;;;;;;7340701;19;110482;-73
2023/12/24 06:21:26;;;;;;;;;;;12.30;99.90;;;;;;7339753;19;108768;-73
2023/12/24 06:23:53;;;;;;;;;;;12.20;99.90;;;;;;7336055;19;109603;-74
2023/12/24 06:26:20;;;;;;;;;;;12.30;99.90;;;;;;7346311;19;110254;-72
2023/12/24 06:28:47;;;;;;;;;;;12.30;99.90;;;;;;7336067;19;108614;-74
2023/12/24 06:31:23;;;;;;;;;;;12.30;99.90;;;;;;7338516;19;109653;-74
2023/12/24 06:33:51;;;;;;;;;;;12.30;99.90;;;;;;7336168;19;108905;-73
2023/12/24 06:36:18;;;;;;;;;;;12.30;99.90;;;;;;7338419;19;108683;-75
2023/12/24 06:38:45;;;;;;;;;;;12.30;99.90;;;;;;7336095;19;109188;-76
2023/12/24 06:41:14;;;;;;;;;;;12.30;99.90;;;;;;7340783;19;108848;-76
2023/12/24 06:43:42;;;;;;;;;;;12.30;99.90;;;;;;7338465;19;110767;-76
2023/12/24 06:46:12;;;;;;;;;;;12.30;99.90;;;;;;7334824;19;109235;-75
2023/12/24 06:48:40;;;;;;;;;;;12.30;99.90;;;;;;7342882;19;109434;-77
2023/12/24 06:51:10;;;;;;;;;;;12.30;99.90;;;;;;7339788;19;109771;-75
2023/12/24 06:53:38;;;;;;;;;;;12.30;99.90;;;;;;7336965;19;108866;-77
2023/12/24 06:56:07;;;;;;;;;;;12.30;99.90;;;;;;7342761;19;109033;-74
2023/12/24 06:58:35;;;;;;;;;;;12.30;99.90;;;;;;7341376;19;110157;-73
2023/12/24 07:01:02;;;;;;;;;;;12.30;99.90;;;;;;7338318;19;109981;-73
2023/12/24 07:03:29;;;;;;;;;;;12.30;99.90;;;;;;7336972;19;108778;-74
2023/12/24 07:05:58;;;;;;;;;;;12.30;99.90;;;;;;7336843;19;111639;-74
2023/12/24 07:08:25;;;;;;;;;;;12.30;99.90;;;;;;7337944;19;108397;-73
2023/12/24 07:10:52;;;;;;;;;;;12.30;99.90;;;;;;7339340;19;109024;-73
2023/12/24 07:13:19;;;;;;;;;;;12.30;99.90;;;;;;7336497;19;109345;-74
2023/12/24 07:15:46;;;;;;;;;;;12.30;99.90;;;;;;7338011;19;109104;-75
2023/12/24 07:18:14;;;;;;;;;;;12.30;99.90;;;;;;7335672;19;109434;-74
2023/12/24 07:20:41;;;;;;;;;;;12.30;99.90;;;;;;7334938;19;108848;-74
2023/12/24 07:23:08;;;;;;;;;;;12.30;99.90;;;;;;7338664;19;109994;-74
2023/12/24 07:25:35;;;;;;;;;;;12.30;99.90;;;;;;7331211;19;109455;-74
2023/12/24 07:28:03;;;;;;;;;;;12.30;99.90;;;;;;7337352;19;109175;-73
2023/12/24 07:30:30;;;;;;;;;;;12.30;99.90;;;;;;7335393;19;109068;-74
2023/12/24 07:32:57;;;;;;;;;;;12.30;99.90;;;;;;7340682;19;110126;-73
2023/12/24 07:35:28;;;;;;;;;;;12.30;99.90;;;;;;7336036;19;108740;-73
2023/12/24 07:37:55;;;;;;;;;;;12.30;99.90;;;;;;7332970;19;109822;-73
2023/12/24 07:40:22;;;;;;;;;;;12.30;99.90;;;;;;7336716;19;108552;-73
2023/12/24 07:42:49;;;;;;;;;;;12.30;99.90;;;;;;7333234;19;108533;-74
2023/12/24 07:45:17;;;;;;;;;;;12.30;99.90;;;;;;7335531;19;110925;-74
2023/12/24 07:47:45;;;;;;;;;;;12.30;99.90;;;;;;7337362;19;109265;-75
2023/12/24 07:50:12;;;;;;;;;;;12.30;99.90;;;;;;7335193;19;109115;-73
2023/12/24 07:52:39;;;;;;;;;;;12.40;99.90;;;;;;7332534;19;110084;-74
2023/12/24 07:55:07;;;;;;;;;;;12.40;99.90;;;;;;7338873;19;108973;-74
2023/12/24 07:57:34;;;;;;;;;;;12.40;99.90;;;;;;7331756;19;109988;-74
2023/12/24 08:00:01;;;;;;;;;;;12.40;99.90;;;;;;7334240;19;110600;-75
2023/12/24 08:02:29;;;;;;;;;;;12.40;99.90;;;;;;7333548;19;108546;-74
2023/12/24 08:04:56;;;;;;;;;;;12.40;99.90;;;;;;7334063;19;109378;-74
2023/12/24 08:07:23;;;;;;;;;;;12.40;99.90;;;;;;7333408;19;108531;-78
2023/12/24 08:09:51;;;;;;;;;;;12.40;99.90;;;;;;7335563;19;109346;-75
2023/12/24 08:12:18;;;;;;;;;;;12.40;99.90;;;;;;7332273;19;110049;-74
2023/12/24 08:14:45;;;;;;;;;;;12.40;99.90;;;;;;7333704;19;110081;-74
2023/12/24 08:17:13;;;;;;;;;;;12.40;99.90;;;;;;7334914;19;109113;-75
2023/12/24 08:19:40;;;;;;;;;;;12.40;99.90;;;;;;7335894;19;108837;-74
2023/12/24 08:22:07;;;;;;;;;;;12.40;99.90;;;;;;7332832;19;109257;-76
2023/12/24 08:24:34;;;;;;;;;;;12.40;99.90;;;;;;7333659;19;110377;-79
2023/12/24 08:27:01;;;;;;;;;;;12.50;99.90;;;;;;7333287;19;109580;-77
2023/12/24 08:29:28;;;;;;;;;;;12.50;99.90;;;;;;7332587;19;110150;-78
2023/12/24 08:31:56;;;;;;;;;;;12.50;99.90;;;;;;7331295;19;112939;-79
2023/12/24 08:34:24;;;;;;;;;;;12.50;99.90;;;;;;7336248;19;109092;-75
2023/12/24 08:36:51;;;;;;;;;;;12.50;99.90;;;;;;7339219;19;109009;-74
2023/12/24 08:39:18;;;;;;;;;;;12.50;99.90;;;;;;7333044;19;109136;-75
2023/12/24 08:41:45;;;;;;;;;;;12.50;99.90;;;;;;7332067;19;109419;-74
2023/12/24 08:44:13;;;;;;;;;;;12.60;99.90;;;;;;7333296;19;110201;-74
2023/12/24 08:46:41;;;;;;;;;;;12.60;99.90;;;;;;7331935;19;108898;-74
2023/12/24 08:49:08;;;;;;;;;;;12.60;99.90;;;;;;7329306;19;108848;-74
2023/12/24 08:51:35;;;;;;;;;;;12.60;99.90;;;;;;7330740;19;109330;-74
2023/12/24 08:54:03;;;;;;;;;;;12.60;99.90;;;;;;7335592;19;112233;-74
2023/12/24 08:56:34;;;;;;;;;;;12.60;99.90;;;;;;7333344;19;108611;-74
2023/12/24 08:59:02;;;;;;;;;;;12.60;99.90;;;;;;7336425;19;109093;-74
2023/12/24 09:01:29;;;;;;;;;;;12.60;99.90;;;;;;7333065;19;108959;-74
2023/12/24 09:03:56;;;;;;;;;;;12.60;99.90;;;;;;7335286;19;113298;-73
2023/12/24 09:06:23;;;;;;;;;;;12.70;99.90;;;;;;7331135;19;110755;-73
2023/12/24 09:08:50;;;;;;;;;;;12.70;99.90;;;;;;7330737;19;109235;-74
2023/12/24 09:11:18;;;;;;;;;;;12.70;99.90;;;;;;7331603;19;109102;-73
2023/12/24 09:13:47;;;;;;;;;;;12.70;99.90;;;;;;7333394;19;108647;-73
2023/12/24 09:16:14;;;;;;;;;;;12.70;99.90;;;;;;7330587;19;108698;-73
2023/12/24 09:25:07;;;;;;;;;;;12.70;99.90;;;;;;7308372;19;110746;-77
2023/12/24 09:54:53;;;;;;;;;;;12.80;99.90;;;;;;7339175;19;109520;-73
2023/12/24 10:00:39;;;;;;;;;;;12.90;99.90;;;;;;7333191;19;109008;-72
2023/12/24 10:09:22;;;;;;;;;;;12.90;99.90;;;;;;7336656;19;110535;-73
2023/12/24 10:15:00;;;;;;;;;;;12.90;99.90;;;;;;7340674;19;108683;-72
2023/12/24 10:33:21;;;;;;;;;;;13.00;99.90;;;;;;7338907;19;108273;-74
2023/12/24 11:47:26;;;;;;;;;;;13.20;99.90;;;;;;7334519;19;109942;-74
2023/12/24 12:37:46;;;;;;;;;;;13.40;99.90;;;;;;7333949;19;109143;-73
2023/12/24 12:56:02;;;;;;;;;;;13.50;99.90;;;;;;7335879;19;109667;-73
2023/12/24 12:58:31;;;;;;;;;;;13.60;99.90;;;;;;7328909;19;111579;-72
2023/12/24 13:01:02;;;;;;;;;;;13.60;99.90;;;;;;7328738;19;108824;-72
2023/12/24 13:03:29;;;;;;;;;;;13.70;99.90;;;;;;7328061;19;108999;-72
2023/12/24 13:06:09;;;;;;;;;;;13.70;99.90;;;;;;7336937;19;111386;-74
2023/12/24 13:08:37;;;;;;;;;;;13.70;99.90;;;;;;7335205;19;109157;-72
2023/12/24 13:11:07;;;;;;;;;;;13.70;99.90;;;;;;7345096;19;110864;-75
2023/12/24 13:13:35;;;;;;;;;;;13.80;99.90;;;;;;7335131;19;112372;-72
2023/12/24 13:16:04;;;;;;;;;;;13.80;99.90;;;;;;7338547;19;108999;-72
2023/12/24 13:18:31;;;;;;;;;;;13.90;99.90;;;;;;7335285;19;109923;-72
2023/12/24 13:21:03;;;;;;;;;;;13.90;99.90;;;;;;7338691;19;110260;-73
2023/12/24 13:23:31;;;;;;;;;;;13.90;99.90;;;;;;7335120;19;109274;-72
2023/12/24 13:26:02;;;;;;;;;;;13.90;99.90;;;;;;7332039;19;112764;-70
2023/12/24 13:28:32;;;;;;;;;;;13.90;99.90;;;;;;7334624;19;109805;-72
2023/12/24 13:31:03;;;;;;;;;;;14.00;99.90;;;;;;7336028;19;110151;-71
2023/12/24 13:33:33;;;;;;;;;;;14.00;99.90;;;;;;7338938;19;109753;-74
2023/12/24 13:36:01;;;;;;;;;;;14.10;99.90;;;;;;7333944;19;109331;-72
2023/12/24 13:38:29;;;;;;;;;;;14.00;99.90;;;;;;7335748;19;109331;-72
2023/12/24 13:40:58;;;;;;;;;;;14.00;99.90;;;;;;7331603;19;108548;-73
2023/12/24 13:43:25;;;;;;;;;;;14.10;99.90;;;;;;7336944;19;110318;-72
2023/12/24 13:45:54;;;;;;;;;;;14.10;99.90;;;;;;7333149;19;109760;-73
2023/12/24 13:48:21;;;;;;;;;;;14.10;99.90;;;;;;7335570;19;109402;-73
2023/12/24 13:50:49;;;;;;;;;;;14.10;99.90;;;;;;7338192;19;109907;-73
2023/12/24 13:53:16;;;;;;;;;;;14.10;99.90;;;;;;7337401;19;110640;-73
2023/12/24 13:55:58;;;;;;;;;;;14.20;99.90;;;;;;7341827;19;108928;-72
2023/12/24 13:58:26;;;;;;;;;;;14.20;99.90;;;;;;7336574;19;113178;-71
2023/12/24 14:00:53;;;;;;;;;;;14.20;99.90;;;;;;7338086;19;110833;-73
2023/12/24 14:03:21;;;;;;;;;;;14.20;99.90;;;;;;7333612;19;108839;-72
2023/12/24 14:05:49;;;;;;;;;;;14.20;99.90;;;;;;7334340;19;110590;-73
2023/12/24 14:08:17;;;;;;;;;;;14.20;99.90;;;;;;7338946;19;108831;-73
2023/12/24 14:10:44;;;;;;;;;;;14.20;99.90;;;;;;7336838;19;109563;-73
2023/12/24 14:13:11;;;;;;;;;;;14.20;99.90;;;;;;7336840;19;110548;-73
2023/12/24 14:15:38;;;;;;;;;;;14.30;99.90;;;;;;7335467;19;109549;-74
2023/12/24 14:18:07;;;;;;;;;;;14.20;99.90;;;;;;7340886;19;109460;-72
2023/12/24 14:20:35;;;;;;;;;;;14.30;99.90;;;;;;7337811;19;108414;-73
2023/12/24 14:23:02;;;;;;;;;;;14.20;99.90;;;;;;7337549;19;108820;-76
2023/12/24 14:25:29;;;;;;;;;;;14.20;99.90;;;;;;7337785;19;112900;-70
2023/12/24 14:27:56;;;;;;;;;;;14.20;99.90;;;;;;7336505;19;109740;-72
2023/12/24 14:30:23;;;;;;;;;;;14.20;99.90;;;;;;7338299;19;108937;-73
2023/12/24 14:32:51;;;;;;;;;;;14.30;99.90;;;;;;7331897;19;110370;-74
2023/12/24 14:35:18;;;;;;;;;;;14.30;99.90;;;;;;7335732;19;109979;-74
2023/12/24 14:37:49;;;;;;;;;;;14.20;99.90;;;;;;7336055;19;109837;-73
2023/12/24 14:40:27;;;;;;;;;;;14.20;99.90;;;;;;7343966;19;109587;-72
2023/12/24 14:42:54;;;;;;;;;;;14.20;99.90;;;;;;7337302;19;109791;-74
2023/12/24 14:45:21;;;;;;;;;;;14.20;99.90;;;;;;7338840;19;110252;-74
2023/12/24 14:47:49;;;;;;;;;;;14.20;99.90;;;;;;7338042;19;109121;-74
2023/12/24 14:50:16;;;;;;;;;;;14.30;99.90;;;;;;7335886;19;109036;-72
2023/12/24 14:52:43;;;;;;;;;;;14.30;99.90;;;;;;7337139;19;109087;-73
2023/12/24 14:55:10;;;;;;;;;;;14.30;99.90;;;;;;7334414;19;109452;-75
2023/12/24 14:57:37;;;;;;;;;;;14.20;99.90;;;;;;7339071;19;108850;-75
2023/12/24 15:00:05;;;;;;;;;;;14.20;99.90;;;;;;7330421;19;111012;-73
2023/12/24 15:02:32;;;;;;;;;;;14.20;99.90;;;;;;7343156;19;108508;-74
2023/12/24 15:04:59;;;;;;;;;;;14.30;99.90;;;;;;7335599;19;114564;-73
2023/12/24 15:07:31;;;;;;;;;;;14.20;99.90;;;;;;7337879;19;108459;-74
2023/12/24 15:09:58;;;;;;;;;;;14.30;99.90;;;;;;7335185;19;108707;-73
2023/12/24 15:12:26;;;;;;;;;;;14.20;99.90;;;;;;7335443;19;109151;-75
2023/12/24 15:14:54;;;;;;;;;;;14.20;99.90;;;;;;7335707;19;108638;-74
2023/12/24 15:17:22;;;;;;;;;;;14.30;99.90;;;;;;7336223;19;109705;-73
2023/12/24 15:19:50;;;;;;;;;;;14.20;99.90;;;;;;7335221;19;111506;-74
2023/12/24 15:22:17;;;;;;;;;;;14.30;99.90;;;;;;7343369;19;109260;-74
2023/12/24 15:24:44;;;;;;;;;;;14.30;99.90;;;;;;7333493;19;110183;-73
2023/12/24 15:27:12;;;;;;;;;;;14.30;99.90;;;;;;7332255;19;110406;-73
2023/12/24 15:29:39;;;;;;;;;;;14.30;99.90;;;;;;7336515;19;108962;-73
2023/12/24 15:32:07;;;;;;;;;;;14.30;99.90;;;;;;7332810;19;109614;-73
2023/12/24 15:34:35;;;;;;;;;;;14.30;99.90;;;;;;7337044;19;108510;-72
2023/12/24 15:37:02;;;;;;;;;;;14.30;99.90;;;;;;7336506;19;110655;-74
2023/12/24 15:39:29;;;;;;;;;;;14.30;99.90;;;;;;7338720;19;109469;-72
2023/12/24 15:41:59;;;;;;;;;;;14.30;99.90;;;;;;7335614;19;109477;-72
2023/12/24 15:44:27;;;;;;;;;;;14.30;99.90;;;;;;7343080;19;108886;-73
2023/12/24 15:46:54;;;;;;;;;;;14.30;99.90;;;;;;7331902;19;109861;-73
2023/12/24 15:49:21;;;;;;;;;;;14.30;99.90;;;;;;7336344;19;110172;-73
2023/12/24 15:51:48;;;;;;;;;;;14.30;99.90;;;;;;7336408;19;109449;-73
2023/12/24 15:54:15;;;;;;;;;;;14.30;99.90;;;;;;7336286;19;109084;-73
2023/12/24 15:56:43;;;;;;;;;;;14.30;99.90;;;;;;7332067;19;109410;-73
2023/12/24 15:59:10;;;;;;;;;;;14.20;99.90;;;;;;7325626;19;111989;-74
2023/12/24 16:01:42;;;;;;;;;;;14.30;99.90;;;;;;7332197;19;109142;-73
2023/12/24 16:04:10;;;;;;;;;;;14.30;99.90;;;;;;7329414;19;108962;-73
2023/12/24 16:06:38;;;;;;;;;;;14.30;99.90;;;;;;7338403;19;109178;-75
2023/12/24 16:09:07;;;;;;;;;;;14.30;99.90;;;;;;7328117;19;109468;-73
2023/12/24 16:11:34;;;;;;;;;;;14.20;99.90;;;;;;7333306;19;110418;-73
2023/12/24 16:14:02;;;;;;;;;;;14.20;99.90;;;;;;7331415;19;110404;-71
2023/12/24 16:16:30;;;;;;;;;;;14.20;99.90;;;;;;7332009;19;111752;-72
2023/12/24 16:18:57;;;;;;;;;;;14.20;99.90;;;;;;7331991;19;109978;-71
2023/12/24 16:21:24;;;;;;;;;;;14.20;99.90;;;;;;7331462;19;113397;-72
2023/12/24 16:23:51;;;;;;;;;;;14.20;99.90;;;;;;7328734;19;109749;-73
2023/12/24 16:26:19;;;;;;;;;;;14.10;99.90;;;;;;7332910;19;110079;-73
2023/12/24 16:28:46;;;;;;;;;;;14.10;99.90;;;;;;7339294;19;109557;-73
2023/12/24 16:31:13;;;;;;;;;;;14.10;99.90;;;;;;7333689;19;109196;-72
2023/12/24 16:33:40;;;;;;;;;;;14.00;99.90;;;;;;7330814;19;109122;-73
2023/12/24 16:36:08;;;;;;;;;;;14.10;99.90;;;;;;7329147;19;108873;-73
2023/12/24 16:38:38;;;;;;;;;;;14.00;99.90;;;;;;7327323;19;109314;-73
2023/12/24 16:41:06;;;;;;;;;;;14.00;99.90;;;;;;7333286;19;108896;-72
2023/12/24 16:43:33;;;;;;;;;;;14.00;99.90;;;;;;7332162;19;109244;-73
2023/12/24 16:46:01;;;;;;;;;;;14.00;99.90;;;;;;7332833;19;109162;-75
2023/12/24 16:48:28;;;;;;;;;;;14.00;99.90;;;;;;7331831;19;109252;-76
2023/12/24 16:50:55;;;;;;;;;;;14.00;99.90;;;;;;7336014;19;109939;-73
2023/12/24 16:53:22;;;;;;;;;;;14.00;99.90;;;;;;7329888;19;109127;-74
2023/12/24 16:55:49;;;;;;;;;;;13.90;99.90;;;;;;7331956;19;112466;-75
2023/12/24 16:58:16;;;;;;;;;;;14.00;99.90;;;;;;7328889;19;109133;-77
2023/12/24 17:00:43;;;;;;;;;;;13.90;99.90;;;;;;7331240;19;108903;-79
2023/12/24 17:03:11;;;;;;;;;;;14.00;99.90;;;;;;7327006;19;109898;-72
2023/12/24 17:05:38;;;;;;;;;;;13.90;99.90;;;;;;7332043;19;109983;-74
2023/12/24 17:08:05;;;;;;;;;;;13.90;99.90;;;;;;7324086;19;108876;-78
2023/12/24 17:10:32;;;;;;;;;;;13.90;99.90;;;;;;7328764;19;109502;-72
2023/12/24 17:12:59;;;;;;;;;;;13.90;99.90;;;;;;7333913;19;110914;-72
2023/12/24 17:15:27;;;;;;;;;;;13.90;99.90;;;;;;7329523;19;109207;-72
2023/12/24 17:17:54;;;;;;;;;;;13.90;99.90;;;;;;7330847;19;110804;-71
2023/12/24 17:20:22;;;;;;;;;;;13.90;99.90;;;;;;7326971;19;108988;-72
2023/12/24 17:22:49;;;;;;;;;;;13.90;99.90;;;;;;7331418;19;114792;-72
2023/12/24 17:25:18;;;;;;;;;;;13.90;99.90;;;;;;7326300;19;109774;-73